TAF for South-East England Channel Islands and France - 12 Dec 2017 - 2347 UTC - RocketRoute WX - rrwx.com
LFOB 121700Z 1218/1318 20005KT CAVOK BECMG 1302/1305 3000 RADZ OVC007 TEMPO 1305/1308 24020G30KT OVC003 PROB30 TEMPO 1305/1308 1200 RASN BECMG 1308/1310 9999 NSW TEMPO 1310/1318 2000 RADZ OVC003 TEMPO 1314/1318 24020G35KT LFBD 120500Z 1206/1312 VRB03KT CAVOK TEMPO 1206/1209 1500 BCFG BECMG 1304/1306 18013KT TEMPO 1223/1306 1500 BCFG BECMG 1306/1308 BKN020 TEMPO 1308/1312 -RA BKN012 TX09/1215Z TN01/1206Z EGHH 122001Z 1221/1306 20009KT 9999 FEW030 TEMPO 1221/1303 21015G25KT 8000 -RA PROB30 TEMPO 1221/1302 RA BKN014 BECMG 1301/1304 27010KT LFRB AMD 122139Z 1221/1324 21012KT 9999 OVC010 TEMPO 1221/1302 24015G25KT 3000 -RA OVC003 BECMG 1302/1304 28008KT BKN020 BECMG 1309/1312 21015G25KT 3000 RA SCT003 OVC005 BECMG 1315/1317 27020G30KT 9999 NSW BKN025 TEMPO 1317/1324 27025G40KT 3000 SHRA BKN015TCU LFRK 121400Z 1215/1224 21008KT 9999 SCT040 BECMG 1218/1221 20013KT TEMPO 1222/1224 20015G25KT LFRC 121400Z 1215/1224 20010KT 9999 SCT030 PROB30 TEMPO 1215/1218 5000 SHRA BKN020TCU BECMG 1218/1221 20013KT TEMPO 1221/1224 5000 RA BECMG 1221/1224 20020G30KT LFRG 121400Z 1215/1224 22008KT 9999 SCT030 BECMG 1221/1224 20013KT LFRD 121700Z 1218/1318 18010KT 9999 BKN030 BECMG 1222/1224 19015G25KT 5000 RA BECMG 1300/1302 BKN010 TEMPO 1301/1304 2000 BKN003 BECMG 1303/1305 24012KT 9999 NSW SCT020 BECMG 1309/1312 22015G25KT BECMG 1311/1313 5000 RA BKN010 BECMG 1316/1318 26015G28KT 9999 NSW BKN025 EGLF   EGJB 121703Z 1218/1303 21018KT 9999 FEW020 BKN030 PROB40 TEMPO 1218/1219 8000 SHRA BKN015CB BECMG 1219/1221 20025G35KT 5000 RA BKN015 BECMG 1301/1303 28020KT 9999 NSW BKN030 EGJJ 121703Z 1218/1303 21018KT 9999 FEW020 BKN030 PROB40 TEMPO 1218/1220 8000 SHRA BKN015CB BECMG 1220/1222 19024G34KT 5000 RA BKN015 BECMG 1302/1303 28020KT 9999 NSW BKN030 LFPB 121700Z 1219/1318 20005KT 9999 SCT020 BECMG 1222/1224 BKN009 PROB40 TEMPO 1300/1303 BKN004 BECMG 1303/1305 19015G25KT 4000 -RA TEMPO 1305/1309 3000 RA BKN004 PROB40 TEMPO 1306/1310 19015G30KT TEMPO 1315/1318 3000 RA BKN005 PROB40 1316/1318 21020G30KT LFRM 121700Z 1218/1303 22003KT CAVOK BECMG 1218/1222 16005KT TEMPO 1222/1303 -RA BKN004 LFQQ 121700Z 1218/1324 22005KT CAVOK BECMG 1222/1224 20015KT BECMG 1303/1305 3000 RADZ OVC007 TEMPO 1305/1310 20020G35KT PROB30 TEMPO 1305/1307 1200 RASN OVC003 BECMG 1307/1309 9999 NSW TEMPO 1309/1320 2000 RADZ OVC003 TEMPO 1315/1320 20020G40KT FM132000 27015G25KT 9999 BKN030 EGGW AMD 122104Z 1221/1318 23006KT 9999 FEW020 BECMG 1221/1224 6000 -RA BKN012 PROB30 TEMPO 1222/1302 23015G25KT TEMPO 1223/1302 4000 RADZ BKN003 PROB30 1223/1302 0300 FG BKN001 BECMG 1302/1305 0300 RADZ FG BKN001 BECMG 1303/1305 29010KT BECMG 1305/1308 9999 NSW FEW045 TEMPO 1308/1315 7000 SHRA BKN010 PROB40 TEMPO 1309/1315 4000 +SHRA BKN007 BECMG 1315/1318 28015G25KT EGLC   EGKK AMD 122020Z 1220/1324 19006KT 9999 SCT030 TEMPO 1220/1224 8000 RA BKN012 BECMG 1300/1303 BKN012 TEMPO 1300/1305 19015G25KT 6000 RA BKN008 PROB30 TEMPO 1300/1305 3000 RADZ BKN004 BECMG 1305/1308 BKN030 TEMPO 1310/1316 7000 SHRA PROB40 TEMPO 1313/1316 26015G28KT 4000 +SHRA BKN014 TEMPO 1320/1324 26015G30KT 7000 SHRA PROB40 TEMPO 1320/1322 4000 +SHRA BKN014 EGLL 121656Z 1218/1324 20010KT CAVOK PROB30 TEMPO 1218/1221 7000 BECMG 1219/1222 BKN025 TEMPO 1221/1306 7000 -RA BKN012 PROB30 TEMPO 1223/1306 20015G25KT 3000 RADZ BKN005 TEMPO 1310/1316 27018G28KT 7000 SHRA BKN012 PROB30 TEMPO 1312/1316 4000 +SHRA BECMG 1318/1321 26020G30KT TEMPO 1320/1324 6000 SHRA BKN012 EGSS AMD 122104Z 1221/1324 22006KT 9999 FEW020 BECMG 1221/1224 6000 -RA BKN012 PROB30 TEMPO 1222/1302 23015G25KT TEMPO 1300/1306 3000 RADZ BKN003 PROB30 TEMPO 1302/1307 0300 FG BKN001 BECMG 1303/1305 28010KT BECMG 1306/1309 22012KT 9999 NSW SCT020 TEMPO 1310/1315 21015G25KT 7000 SHRA BKN009 PROB30 TEMPO 1310/1315 3000 +SHRA BECMG 1315/1318 28015G25KT BECMG 1318/1321 22012KT TEMPO 1320/1324 21015G27KT 6000 SHRA BKN010 PROB30 TEMPO 1321/1324 3000 +SHRA BKN006 LFPO   LFPG 121700Z 1219/1324 20005KT 9999 SCT020 BECMG 1222/1224 BKN009 PROB40 TEMPO 1300/1303 BKN004 BECMG 1303/1305 19015G25KT 4000 -RA TEMPO 1305/1309 3000 RA BKN004 PROB40 TEMPO 1306/1310 19015G30KT TEMPO 1315/1320 3000 RA BKN005 PROB40 1316/1324 21020G30KT TX08/1321Z TN02/1222Z LFRN 121700Z 1218/1318 17005KT 9999 BKN030 BECMG 1220/1222 18010KT BECMG 1223/1301 5000 RA BECMG 1301/1303 BKN010 TEMPO 1302/1305 22015G25KT 2000 BKN003 BECMG 1304/1306 25010KT 9999 NSW SCT020 BECMG 1309/1312 22013KT BECMG 1310/1313 5000 RA BKN010 BECMG 1316/1318 9999 NSW BKN025 TEMPO 1315/1318 28015G25KT EGHI   EGMC 122012Z 1221/1306 20008KT 9999 FEW020 TEMPO 1222/1306 7000 RA BKN012 PROB40 TEMPO 1223/1304 23015G25KT 3000 RADZ BKN007 BECMG 1304/1306 27012KT TEMPO 1304/1306 3000 DZ BKN004 LFPN  

RocketRoute WX - rrwx.com weather for pilots